Time;durP1;ratioP1;P1;durP2;ratioP2;P2;SDS_P1;SDS_P2;PMS_P1;PMS_P2;Temp;Humidity;BMP_temperature;BMP_pressure;BME280_temperature;BME280_humidity;BME280_pressure;Samples;Min_cycle;Max_cycle;Signal;HPM_P1;HPM_P2
2023/03/17 00:00:42;;;;;;;13.85;7.93;;;;;;;;;;4987094;28;20470;-65
2023/03/17 00:03:24;;;;;;;15.27;7.88;;;;;;;;;;4983079;28;20058;-66
2023/03/17 00:05:50;;;;;;;15.13;7.15;;;;;;;;;;4979085;28;20048;-65
2023/03/17 00:08:23;;;;;;;18.10;7.43;;;;;;;;;;4983555;28;20931;-67
2023/03/17 00:10:50;;;;;;;12.55;7.20;;;;;;;;;;4972875;28;20043;-65
2023/03/17 00:13:18;;;;;;;17.48;8.15;;;;;;;;;;4988591;28;20141;-65
2023/03/17 00:15:49;;;;;;;15.45;7.65;;;;;;;;;;4983804;28;20069;-64
2023/03/17 00:18:18;;;;;;;13.82;6.93;;;;;;;;;;4956645;28;20054;-64
2023/03/17 00:20:45;;;;;;;13.18;6.65;;;;;;;;;;4988149;28;20410;-64
2023/03/17 00:23:16;;;;;;;12.23;6.90;;;;;;;;;;4985852;28;20058;-65
2023/03/17 00:25:44;;;;;;;12.63;6.57;;;;;;;;;;4981288;28;20042;-65
2023/03/17 00:28:21;;;;;;;12.70;7.03;;;;;;;;;;4981732;28;20418;-66
2023/03/17 00:30:53;;;;;;;17.88;6.75;;;;;;;;;;4963863;28;20088;-63
2023/03/17 00:33:23;;;;;;;19.98;7.68;;;;;;;;;;4981709;28;21765;-65
2023/03/17 00:35:49;;;;;;;16.80;7.65;;;;;;;;;;4959583;28;20478;-64
2023/03/17 00:38:18;;;;;;;20.60;8.18;;;;;;;;;;4976844;28;20059;-64
2023/03/17 00:40:44;;;;;;;13.77;7.22;;;;;;;;;;4970112;28;20137;-63
2023/03/17 00:43:12;;;;;;;17.85;8.13;;;;;;;;;;4983951;28;20050;-63
2023/03/17 00:45:39;;;;;;;14.38;6.60;;;;;;;;;;4977349;28;20466;-65
2023/03/17 00:48:14;;;;;;;15.80;6.78;;;;;;;;;;4986347;28;20046;-63
2023/03/17 00:50:41;;;;;;;16.67;7.03;;;;;;;;;;4965897;28;20072;-63
2023/03/17 00:53:16;;;;;;;19.33;8.15;;;;;;;;;;4975663;28;20053;-66
2023/03/17 00:56:22;;;;;;;17.75;7.13;;;;;;;;;;4981947;28;20053;-65
2023/03/17 01:00:04;;;;;;;15.85;7.57;;;;;;;;;;4980508;28;20038;-66
2023/03/17 01:03:10;;;;;;;15.15;7.95;;;;;;;;;;4979522;28;20077;-64
2023/03/17 01:05:37;;;;;;;14.80;7.75;;;;;;;;;;4983072;28;20046;-67
2023/03/17 01:08:03;;;;;;;17.00;8.93;;;;;;;;;;4971162;28;20066;-64
2023/03/17 01:10:29;;;;;;;15.63;7.80;;;;;;;;;;4966954;28;20121;-66
2023/03/17 01:12:57;;;;;;;18.45;8.80;;;;;;;;;;4986631;28;20042;-66
2023/03/17 01:15:30;;;;;;;15.48;8.68;;;;;;;;;;4984738;28;20062;-65
2023/03/17 01:18:22;;;;;;;22.67;8.82;;;;;;;;;;4969809;28;20051;-68
2023/03/17 01:20:49;;;;;;;17.02;9.48;;;;;;;;;;4982048;28;20125;-66
2023/03/17 01:23:17;;;;;;;20.75;9.95;;;;;;;;;;4982264;28;20109;-63
2023/03/17 01:25:44;;;;;;;19.15;9.70;;;;;;;;;;4980999;28;20200;-64
2023/03/17 01:28:15;;;;;;;17.70;10.02;;;;;;;;;;4987135;28;20119;-65
2023/03/17 01:30:44;;;;;;;21.73;10.48;;;;;;;;;;4978184;28;20046;-64
2023/03/17 01:33:14;;;;;;;20.85;11.43;;;;;;;;;;4985705;28;20046;-64
2023/03/17 01:36:20;;;;;;;20.08;12.77;;;;;;;;;;4985864;28;20065;-63
2023/03/17 01:40:00;;;;;;;38.35;19.27;;;;;;;;;;4978381;28;20145;-63
2023/03/17 01:43:07;;;;;;;26.95;14.32;;;;;;;;;;4983155;28;20034;-64
2023/03/17 01:47:03;;;;;;;22.55;11.32;;;;;;;;;;4973992;28;20375;-64
2023/03/17 01:50:47;;;;;;;25.20;11.10;;;;;;;;;;4982183;28;20141;-63
2023/03/17 01:54:27;;;;;;;22.00;10.80;;;;;;;;;;4969717;28;20173;-63
2023/03/17 01:57:22;;;;;;;21.70;10.70;;;;;;;;;;4979799;28;20077;-63
2023/03/17 02:00:04;;;;;;;19.88;9.90;;;;;;;;;;4983934;28;20047;-64
2023/03/17 02:02:36;;;;;;;21.67;10.18;;;;;;;;;;4982811;28;20073;-63
2023/03/17 02:05:04;;;;;;;21.67;10.50;;;;;;;;;;4972252;28;20047;-64
2023/03/17 02:07:31;;;;;;;26.33;9.27;;;;;;;;;;4981650;28;20184;-67
2023/03/17 02:09:58;;;;;;;18.15;9.48;;;;;;;;;;4978630;28;20053;-64
2023/03/17 02:12:27;;;;;;;19.38;9.15;;;;;;;;;;4987894;28;20073;-64
2023/03/17 02:14:54;;;;;;;19.45;8.73;;;;;;;;;;4983501;28;20046;-63
2023/03/17 02:17:25;;;;;;;16.50;9.40;;;;;;;;;;4984892;28;20047;-67
2023/03/17 02:19:51;;;;;;;21.00;10.15;;;;;;;;;;4976396;28;20415;-64
2023/03/17 02:22:18;;;;;;;21.80;10.48;;;;;;;;;;4985054;28;20054;-62
2023/03/17 02:24:52;;;;;;;19.88;9.98;;;;;;;;;;4984955;28;20050;-63
2023/03/17 02:27:25;;;;;;;21.75;11.38;;;;;;;;;;4987100;28;20097;-64
2023/03/17 02:29:51;;;;;;;22.77;11.63;;;;;;;;;;4984265;28;20360;-64
2023/03/17 02:32:18;;;;;;;25.13;11.80;;;;;;;;;;4985148;28;20054;-65
2023/03/17 02:34:47;;;;;;;41.40;11.63;;;;;;;;;;4968389;28;20061;-63
2023/03/17 02:37:14;;;;;;;23.98;11.30;;;;;;;;;;4974038;28;20050;-65
2023/03/17 02:39:41;;;;;;;21.60;10.48;;;;;;;;;;4967274;28;20051;-64
2023/03/17 02:42:08;;;;;;;24.60;11.50;;;;;;;;;;4984606;28;20414;-64
2023/03/17 02:44:34;;;;;;;20.25;11.20;;;;;;;;;;4985665;28;20179;-64
2023/03/17 02:47:00;;;;;;;21.88;10.90;;;;;;;;;;4960652;28;20283;-64
2023/03/17 02:49:29;;;;;;;20.25;9.50;;;;;;;;;;4985234;28;20147;-63
2023/03/17 02:51:56;;;;;;;21.60;9.30;;;;;;;;;;4983728;28;20395;-64
2023/03/17 02:54:21;;;;;;;20.30;8.63;;;;;;;;;;4982574;28;20055;-63
2023/03/17 02:56:48;;;;;;;19.13;8.30;;;;;;;;;;4986369;28;20467;-63
2023/03/17 02:59:15;;;;;;;22.10;9.07;;;;;;;;;;4985432;28;20043;-64
2023/03/17 03:01:41;;;;;;;20.70;8.52;;;;;;;;;;4968585;28;20050;-62
2023/03/17 03:04:07;;;;;;;16.55;8.30;;;;;;;;;;4987248;28;20520;-64
2023/03/17 03:06:35;;;;;;;21.83;9.25;;;;;;;;;;4987109;28;20064;-64
2023/03/17 03:09:02;;;;;;;17.73;8.82;;;;;;;;;;4978591;28;20415;-64
2023/03/17 03:11:30;;;;;;;17.98;8.32;;;;;;;;;;4964010;28;20060;-66
2023/03/17 03:13:56;;;;;;;22.35;8.77;;;;;;;;;;4988027;28;20098;-63
2023/03/17 03:16:25;;;;;;;22.90;9.57;;;;;;;;;;4967685;28;20058;-63
2023/03/17 03:18:50;;;;;;;19.80;9.20;;;;;;;;;;4984609;28;20054;-64
2023/03/17 03:21:17;;;;;;;25.10;10.60;;;;;;;;;;4988610;28;20057;-66
2023/03/17 03:23:44;;;;;;;21.83;9.90;;;;;;;;;;4988608;28;20065;-64
2023/03/17 03:26:13;;;;;;;25.20;11.02;;;;;;;;;;4969706;28;20529;-63
2023/03/17 03:28:40;;;;;;;23.55;11.45;;;;;;;;;;4988894;28;20204;-64
2023/03/17 03:31:06;;;;;;;26.75;12.10;;;;;;;;;;4990705;28;20449;-63
2023/03/17 03:33:34;;;;;;;21.75;11.57;;;;;;;;;;4986465;28;20046;-63
2023/03/17 03:36:00;;;;;;;24.73;11.93;;;;;;;;;;4987980;28;20442;-63
2023/03/17 03:38:28;;;;;;;21.85;13.13;;;;;;;;;;4983896;28;20100;-62
2023/03/17 03:40:54;;;;;;;28.67;13.45;;;;;;;;;;4985190;28;20053;-62
2023/03/17 03:43:20;;;;;;;26.85;14.20;;;;;;;;;;4985810;28;20043;-63
2023/03/17 03:45:47;;;;;;;27.80;14.48;;;;;;;;;;4986866;28;20054;-63
2023/03/17 03:48:15;;;;;;;35.50;16.77;;;;;;;;;;4988183;28;20042;-64
2023/03/17 03:50:42;;;;;;;37.95;17.88;;;;;;;;;;4988495;28;20491;-63
2023/03/17 03:53:07;;;;;;;30.58;17.42;;;;;;;;;;4988324;28;20077;-64
2023/03/17 03:55:34;;;;;;;31.27;15.68;;;;;;;;;;4980420;28;20050;-63
2023/03/17 03:58:01;;;;;;;31.55;15.38;;;;;;;;;;4985945;28;20050;-64
2023/03/17 04:00:27;;;;;;;28.25;14.80;;;;;;;;;;4988781;28;20058;-62
2023/03/17 04:02:54;;;;;;;31.80;12.70;;;;;;;;;;4968975;28;20185;-64
2023/03/17 04:05:21;;;;;;;32.45;14.07;;;;;;;;;;4986283;28;20116;-63
2023/03/17 04:07:46;;;;;;;32.30;12.63;;;;;;;;;;4988046;28;20086;-63
2023/03/17 04:10:14;;;;;;;26.75;10.52;;;;;;;;;;4967150;28;20054;-63
2023/03/17 04:12:40;;;;;;;24.23;8.95;;;;;;;;;;4988140;28;20046;-62
2023/03/17 04:15:12;;;;;;;20.25;6.65;;;;;;;;;;4966514;28;20065;-64
2023/03/17 04:17:38;;;;;;;17.35;5.90;;;;;;;;;;4970314;28;20141;-62
2023/03/17 04:20:05;;;;;;;18.42;5.95;;;;;;;;;;4985866;28;20112;-66
2023/03/17 04:22:31;;;;;;;14.05;5.07;;;;;;;;;;4983874;28;20042;-62
2023/03/17 04:24:57;;;;;;;14.68;4.75;;;;;;;;;;4976595;28;20126;-64
2023/03/17 04:27:22;;;;;;;10.82;4.30;;;;;;;;;;4970807;28;20533;-64
2023/03/17 04:29:49;;;;;;;10.88;4.57;;;;;;;;;;4981398;28;20137;-64
2023/03/17 04:32:16;;;;;;;11.80;4.63;;;;;;;;;;4978196;28;20105;-62
2023/03/17 04:34:46;;;;;;;11.85;4.10;;;;;;;;;;4984147;28;20054;-63
2023/03/17 04:37:12;;;;;;;9.15;3.92;;;;;;;;;;4980307;28;21327;-62
2023/03/17 04:39:41;;;;;;;9.05;3.88;;;;;;;;;;4982568;28;20152;-63
2023/03/17 04:42:07;;;;;;;9.05;3.97;;;;;;;;;;4988175;28;20074;-64
2023/03/17 04:44:33;;;;;;;10.40;3.80;;;;;;;;;;4962759;28;20113;-63
2023/03/17 04:47:00;;;;;;;7.65;3.60;;;;;;;;;;4970443;28;20058;-63
2023/03/17 04:49:26;;;;;;;7.55;3.00;;;;;;;;;;4984448;28;20057;-63
2023/03/17 04:51:52;;;;;;;10.00;3.63;;;;;;;;;;4988390;28;20133;-63
2023/03/17 04:54:18;;;;;;;11.45;3.45;;;;;;;;;;4978386;28;20090;-63
2023/03/17 04:56:45;;;;;;;11.73;3.90;;;;;;;;;;4982798;28;20324;-65
2023/03/17 04:59:12;;;;;;;9.40;3.28;;;;;;;;;;4972167;28;20121;-63
2023/03/17 05:01:38;;;;;;;11.88;3.80;;;;;;;;;;4981025;28;20085;-66
2023/03/17 05:04:06;;;;;;;11.00;3.63;;;;;;;;;;4984451;28;20059;-67
2023/03/17 05:06:33;;;;;;;14.38;3.83;;;;;;;;;;4965143;28;20073;-63
2023/03/17 05:08:59;;;;;;;8.95;3.80;;;;;;;;;;4987100;28;20082;-63
2023/03/17 05:11:25;;;;;;;9.27;3.75;;;;;;;;;;4969619;28;20073;-62
2023/03/17 05:13:51;;;;;;;12.73;4.03;;;;;;;;;;4988264;28;20061;-63
2023/03/17 05:16:17;;;;;;;20.98;4.80;;;;;;;;;;4969941;28;20051;-63
2023/03/17 05:18:43;;;;;;;14.82;4.20;;;;;;;;;;4985800;28;20061;-63
2023/03/17 05:21:09;;;;;;;9.27;4.15;;;;;;;;;;4967572;28;20086;-64
2023/03/17 05:23:35;;;;;;;17.98;5.40;;;;;;;;;;4986872;28;20054;-62
2023/03/17 05:26:02;;;;;;;10.75;4.60;;;;;;;;;;4986162;28;20054;-64
2023/03/17 05:28:28;;;;;;;15.25;4.15;;;;;;;;;;4979359;28;20046;-65
2023/03/17 05:30:54;;;;;;;10.40;4.25;;;;;;;;;;4974977;28;20560;-65
2023/03/17 05:33:20;;;;;;;13.60;4.70;;;;;;;;;;4986290;28;20062;-63
2023/03/17 05:35:46;;;;;;;9.90;3.90;;;;;;;;;;4970352;28;20046;-65
2023/03/17 05:38:14;;;;;;;12.75;3.95;;;;;;;;;;4972846;28;20395;-62
2023/03/17 05:40:42;;;;;;;7.97;4.05;;;;;;;;;;4983222;28;20367;-68
2023/03/17 05:43:10;;;;;;;13.50;3.80;;;;;;;;;;4965335;28;20057;-64
2023/03/17 05:45:36;;;;;;;10.05;3.22;;;;;;;;;;4986360;28;20077;-64
2023/03/17 05:48:03;;;;;;;13.65;3.85;;;;;;;;;;4975887;28;20742;-63
2023/03/17 05:50:29;;;;;;;14.75;4.28;;;;;;;;;;4980358;28;20054;-63
2023/03/17 05:52:55;;;;;;;11.57;3.80;;;;;;;;;;4978156;28;20966;-64
2023/03/17 05:55:22;;;;;;;11.30;4.75;;;;;;;;;;4965235;28;20085;-62
2023/03/17 05:57:48;;;;;;;13.38;4.18;;;;;;;;;;4985808;28;20042;-64
2023/03/17 06:00:19;;;;;;;11.38;3.85;;;;;;;;;;4978277;28;20070;-66
2023/03/17 06:02:46;;;;;;;10.63;3.70;;;;;;;;;;4981742;28;20050;-62
2023/03/17 06:05:13;;;;;;;12.82;3.83;;;;;;;;;;4979570;28;20058;-63
2023/03/17 06:07:40;;;;;;;16.38;4.03;;;;;;;;;;4978927;28;20137;-65
2023/03/17 06:10:07;;;;;;;11.00;3.85;;;;;;;;;;4974759;28;20465;-63
2023/03/17 06:12:34;;;;;;;11.38;3.97;;;;;;;;;;4977499;28;20046;-65
2023/03/17 06:15:01;;;;;;;9.88;3.45;;;;;;;;;;4981985;28;20054;-63
2023/03/17 06:17:27;;;;;;;14.38;4.22;;;;;;;;;;4978750;28;20046;-64
2023/03/17 06:19:53;;;;;;;12.18;4.22;;;;;;;;;;4975370;28;20458;-63
2023/03/17 06:22:19;;;;;;;17.33;4.60;;;;;;;;;;4979663;28;20521;-63
2023/03/17 06:24:45;;;;;;;15.95;3.70;;;;;;;;;;4976666;28;20577;-62
2023/03/17 06:27:13;;;;;;;10.48;3.13;;;;;;;;;;4980107;28;20046;-63
2023/03/17 06:29:39;;;;;;;8.95;3.08;;;;;;;;;;4950035;28;20184;-63
2023/03/17 06:32:05;;;;;;;6.68;2.63;;;;;;;;;;4979227;28;20050;-63
2023/03/17 06:34:31;;;;;;;10.40;3.03;;;;;;;;;;4977742;28;20392;-63
2023/03/17 06:36:59;;;;;;;8.13;2.72;;;;;;;;;;4959952;28;20043;-63
2023/03/17 06:39:26;;;;;;;11.77;3.25;;;;;;;;;;4967784;28;20062;-63
2023/03/17 06:42:33;;;;;;;10.70;2.92;;;;;;;;;;4956629;28;20148;-63
2023/03/17 06:46:14;;;;;;;10.57;2.55;;;;;;;;;;4976845;28;20419;-66
2023/03/17 06:49:54;;;;;;;5.50;2.65;;;;;;;;;;4979662;28;20050;-63
2023/03/17 06:53:35;;;;;;;11.18;3.10;;;;;;;;;;4975704;28;20478;-65
2023/03/17 06:57:15;;;;;;;14.20;3.08;;;;;;;;;;4980172;28;20054;-64
2023/03/17 07:00:57;;;;;;;8.73;2.97;;;;;;;;;;4981028;28;20155;-64
2023/03/17 07:04:37;;;;;;;11.23;3.40;;;;;;;;;;4979220;28;20114;-62
2023/03/17 07:08:18;;;;;;;10.73;2.95;;;;;;;;;;4981026;28;20280;-65
2023/03/17 07:12:03;;;;;;;14.80;3.75;;;;;;;;;;4978289;28;20042;-66
2023/03/17 07:15:39;;;;;;;9.00;3.22;;;;;;;;;;4978306;28;20403;-63
2023/03/17 07:19:19;;;;;;;15.75;3.50;;;;;;;;;;4976237;28;20039;-63
2023/03/17 07:23:00;;;;;;;7.38;2.92;;;;;;;;;;4978985;28;20395;-64
2023/03/17 07:26:42;;;;;;;10.82;3.28;;;;;;;;;;4973267;28;20082;-63
2023/03/17 07:30:22;;;;;;;8.68;3.20;;;;;;;;;;4974027;28;20062;-65
2023/03/17 07:34:03;;;;;;;11.50;3.38;;;;;;;;;;4981353;28;20561;-65
2023/03/17 07:37:44;;;;;;;14.43;4.20;;;;;;;;;;4982008;28;20049;-63
2023/03/17 07:41:24;;;;;;;9.90;3.72;;;;;;;;;;4980858;28;20952;-64
2023/03/17 07:45:06;;;;;;;26.90;11.38;;;;;;;;;;4974890;28;20057;-63
2023/03/17 07:48:47;;;;;;;14.73;5.55;;;;;;;;;;4977692;28;20038;-65
2023/03/17 07:52:26;;;;;;;10.82;4.15;;;;;;;;;;4977060;28;20086;-66
2023/03/17 07:56:07;;;;;;;9.75;3.80;;;;;;;;;;4985132;28;20071;-63
2023/03/17 07:59:47;;;;;;;10.70;4.20;;;;;;;;;;4981603;28;20042;-66
2023/03/17 08:03:29;;;;;;;13.00;4.63;;;;;;;;;;4982426;28;20038;-65
2023/03/17 08:07:09;;;;;;;12.23;3.70;;;;;;;;;;4980184;28;20050;-64
2023/03/17 08:10:49;;;;;;;12.20;3.40;;;;;;;;;;4974405;28;20046;-65
2023/03/17 08:14:31;;;;;;;18.00;4.53;;;;;;;;;;4975417;28;20052;-65
2023/03/17 08:18:12;;;;;;;15.75;4.57;;;;;;;;;;4972297;28;20046;-65
2023/03/17 08:21:51;;;;;;;13.88;4.47;;;;;;;;;;4984058;28;20054;-66
2023/03/17 08:25:33;;;;;;;17.63;7.45;;;;;;;;;;4974174;28;20138;-66
2023/03/17 08:29:14;;;;;;;19.25;6.13;;;;;;;;;;4985107;28;20133;-67
2023/03/17 08:32:54;;;;;;;20.65;7.28;;;;;;;;;;4982931;28;20038;-66
2023/03/17 08:36:34;;;;;;;20.50;7.30;;;;;;;;;;4982994;28;20050;-67
2023/03/17 08:40:16;;;;;;;17.70;4.95;;;;;;;;;;4985494;28;20530;-66
2023/03/17 08:43:58;;;;;;;16.52;4.68;;;;;;;;;;4981150;28;20442;-65
2023/03/17 08:47:39;;;;;;;11.85;4.25;;;;;;;;;;4982211;28;20483;-65
2023/03/17 08:51:20;;;;;;;12.68;4.22;;;;;;;;;;4981503;28;20241;-66
2023/03/17 08:55:00;;;;;;;20.20;4.40;;;;;;;;;;4983444;28;20117;-65
2023/03/17 08:58:44;;;;;;;8.68;3.90;;;;;;;;;;4986441;28;20865;-68
2023/03/17 09:02:24;;;;;;;7.65;3.75;;;;;;;;;;4983125;28;20652;-66
2023/03/17 09:06:05;;;;;;;12.25;4.35;;;;;;;;;;4979099;28;20053;-67
2023/03/17 09:09:45;;;;;;;11.55;4.90;;;;;;;;;;4979129;28;20061;-66
2023/03/17 09:13:25;;;;;;;9.40;4.78;;;;;;;;;;4982406;28;20079;-65
2023/03/17 09:17:07;;;;;;;14.73;5.53;;;;;;;;;;4980856;28;20387;-67
2023/03/17 09:20:46;;;;;;;11.57;5.22;;;;;;;;;;4984462;28;20050;-65
2023/03/17 09:24:26;;;;;;;13.15;5.32;;;;;;;;;;4968977;28;20042;-68
2023/03/17 09:28:07;;;;;;;13.48;5.45;;;;;;;;;;4970163;28;20043;-67
2023/03/17 09:31:47;;;;;;;12.95;4.70;;;;;;;;;;4977720;28;20338;-67
2023/03/17 09:35:30;;;;;;;18.02;5.45;;;;;;;;;;4974635;28;20072;-66
2023/03/17 09:39:10;;;;;;;15.63;5.57;;;;;;;;;;4979106;28;20057;-67
2023/03/17 09:42:33;;;;;;;11.63;5.20;;;;;;;;;;4980395;28;20494;-67
2023/03/17 09:46:13;;;;;;;14.00;5.10;;;;;;;;;;4979607;28;20046;-66
2023/03/17 09:50:06;;;;;;;11.82;5.15;;;;;;;;;;4977148;28;20323;-68
2023/03/17 09:53:27;;;;;;;13.85;5.55;;;;;;;;;;4981409;28;20061;-69
2023/03/17 09:57:07;;;;;;;11.93;5.38;;;;;;;;;;4983728;28;20417;-69
2023/03/17 10:00:54;;;;;;;12.38;6.50;;;;;;;;;;4977511;28;20068;-69
2023/03/17 10:04:36;;;;;;;20.40;6.10;;;;;;;;;;4980838;28;20049;-65
2023/03/17 10:08:25;;;;;;;10.07;5.05;;;;;;;;;;4980599;28;20069;-66
2023/03/17 10:12:23;;;;;;;14.57;5.35;;;;;;;;;;4971372;28;20177;-65
2023/03/17 10:16:09;;;;;;;13.73;5.22;;;;;;;;;;4973002;28;20181;-70
2023/03/17 10:19:58;;;;;;;13.20;5.70;;;;;;;;;;4985469;28;20041;-67
2023/03/17 10:23:42;;;;;;;16.13;5.75;;;;;;;;;;4974091;28;20100;-66
2023/03/17 10:27:21;;;;;;;11.73;5.25;;;;;;;;;;4978853;28;20046;-68
2023/03/17 10:31:03;;;;;;;13.25;5.47;;;;;;;;;;4970319;28;20149;-68
2023/03/17 10:34:41;;;;;;;13.07;4.95;;;;;;;;;;4963218;28;20034;-67
2023/03/17 10:38:21;;;;;;;14.13;4.10;;;;;;;;;;4974527;28;20105;-65
2023/03/17 10:42:01;;;;;;;16.13;5.05;;;;;;;;;;4979497;28;20462;-67
2023/03/17 10:45:57;;;;;;;16.85;5.32;;;;;;;;;;4975824;28;20058;-66
2023/03/17 10:49:46;;;;;;;14.68;4.30;;;;;;;;;;4895683;29;20092;-69
2023/03/17 10:53:27;;;;;;;11.15;4.18;;;;;;;;;;4906199;29;20425;-68
2023/03/17 10:57:09;;;;;;;13.93;4.03;;;;;;;;;;4906318;29;20052;-66
2023/03/17 11:00:55;;;;;;;14.35;4.55;;;;;;;;;;4905066;29;20048;-65
2023/03/17 11:04:27;;;;;;;13.88;3.53;;;;;;;;;;4899626;29;20083;-67
2023/03/17 11:08:26;;;;;;;16.35;3.90;;;;;;;;;;4898252;29;20083;-67
2023/03/17 11:12:07;;;;;;;11.93;3.72;;;;;;;;;;4904511;29;20126;-67
2023/03/17 11:15:53;;;;;;;13.32;4.65;;;;;;;;;;4896301;29;20591;-67
2023/03/17 11:19:35;;;;;;;18.20;4.95;;;;;;;;;;4902114;29;20096;-68
2023/03/17 11:23:37;;;;;;;25.35;8.38;;;;;;;;;;4955972;28;20503;-68
2023/03/17 11:27:07;;;;;;;17.25;6.07;;;;;;;;;;4923445;28;20059;-64
2023/03/17 11:30:51;;;;;;;11.35;3.90;;;;;;;;;;4917760;29;20064;-68
2023/03/17 11:34:28;;;;;;;15.70;4.53;;;;;;;;;;4924798;29;20048;-72
2023/03/17 11:38:06;;;;;;;13.77;4.93;;;;;;;;;;4922319;29;20048;-65
2023/03/17 11:41:40;;;;;;;27.35;6.50;;;;;;;;;;4917103;29;20039;-68
2023/03/17 11:44:56;;;;;;;13.63;4.13;;;;;;;;;;4924729;29;20047;-65
2023/03/17 11:48:37;;;;;;;12.57;4.93;;;;;;;;;;4921201;29;20500;-66
2023/03/17 11:52:20;;;;;;;17.17;4.55;;;;;;;;;;4921305;29;20052;-68
2023/03/17 11:55:43;;;;;;;14.43;3.95;;;;;;;;;;4921332;29;20050;-66
2023/03/17 11:59:30;;;;;;;12.50;3.75;;;;;;;;;;4980542;28;20051;-68
2023/03/17 12:03:08;;;;;;;11.88;3.08;;;;;;;;;;4982587;28;20057;-67
2023/03/17 12:06:56;;;;;;;19.15;4.28;;;;;;;;;;4978695;28;20039;-66
2023/03/17 12:10:27;;;;;;;13.32;4.05;;;;;;;;;;4980693;28;20046;-66
2023/03/17 12:14:02;;;;;;;17.08;3.35;;;;;;;;;;4907148;29;20059;-67
2023/03/17 12:17:32;;;;;;;13.50;3.88;;;;;;;;;;4905714;29;20040;-70
2023/03/17 12:20:52;;;;;;;14.73;3.80;;;;;;;;;;4906723;29;20123;-65
2023/03/17 12:24:11;;;;;;;11.55;3.05;;;;;;;;;;4906448;29;20060;-67
2023/03/17 12:27:53;;;;;;;12.90;2.92;;;;;;;;;;4901865;29;20457;-67
2023/03/17 12:31:55;;;;;;;9.00;3.28;;;;;;;;;;4906766;29;20222;-67
2023/03/17 12:35:48;;;;;;;13.45;4.13;;;;;;;;;;4895724;29;20047;-66
2023/03/17 12:39:18;;;;;;;13.70;3.55;;;;;;;;;;4904365;29;20474;-64
2023/03/17 12:42:14;;;;;;;9.50;2.40;;;;;;;;;;4893945;29;20444;-65
2023/03/17 12:44:49;;;;;;;9.43;2.67;;;;;;;;;;4902606;29;20055;-65
2023/03/17 12:47:36;;;;;;;7.88;3.35;;;;;;;;;;4900145;29;20056;-64
2023/03/17 12:50:35;;;;;;;9.35;2.83;;;;;;;;;;4942169;28;20055;-64
2023/03/17 12:53:11;;;;;;;11.73;3.90;;;;;;;;;;4976623;28;20080;-65
2023/03/17 12:56:15;;;;;;;13.60;4.43;;;;;;;;;;4958260;28;20237;-65
2023/03/17 12:59:58;;;;;;;16.70;4.75;;;;;;;;;;4983579;28;20070;-66
2023/03/17 13:03:49;;;;;;;16.27;3.08;;;;;;;;;;4978027;28;20061;-64
2023/03/17 13:07:52;;;;;;;31.33;12.65;;;;;;;;;;4976593;28;20049;-68
2023/03/17 13:11:47;;;;;;;13.98;3.53;;;;;;;;;;4982684;28;20406;-63
2023/03/17 13:15:22;;;;;;;19.52;3.33;;;;;;;;;;4981177;28;20273;-69
2023/03/17 13:19:02;;;;;;;10.20;3.15;;;;;;;;;;4979710;28;20052;-67
2023/03/17 13:22:06;;;;;;;10.30;3.08;;;;;;;;;;4981176;28;20697;-64
2023/03/17 13:25:34;;;;;;;12.98;3.03;;;;;;;;;;4978058;28;20109;-65
2023/03/17 13:28:36;;;;;;;12.52;3.38;;;;;;;;;;4974646;28;20058;-66
2023/03/17 13:32:14;;;;;;;12.63;3.33;;;;;;;;;;4978080;28;20270;-67
2023/03/17 13:35:47;;;;;;;8.85;2.85;;;;;;;;;;4978978;28;20050;-70
2023/03/17 13:39:35;;;;;;;16.17;3.65;;;;;;;;;;4979870;28;20106;-67
2023/03/17 13:42:55;;;;;;;10.05;3.67;;;;;;;;;;4977119;28;20054;-65
2023/03/17 13:45:38;;;;;;;11.63;3.33;;;;;;;;;;4983307;28;20050;-67
2023/03/17 13:48:34;;;;;;;11.98;4.30;;;;;;;;;;4949429;28;20042;-65
2023/03/17 13:51:22;;;;;;;15.30;5.00;;;;;;;;;;4965171;28;20050;-66
2023/03/17 13:54:17;;;;;;;11.98;3.97;;;;;;;;;;4981704;28;20050;-68
2023/03/17 13:56:44;;;;;;;11.63;3.35;;;;;;;;;;4981781;28;20054;-66
2023/03/17 13:59:19;;;;;;;12.38;2.90;;;;;;;;;;4984549;28;20057;-66
2023/03/17 14:02:15;;;;;;;;;;;;;;;;;;4965405;28;20281;-65
2023/03/17 14:05:27;;;;;;;10.13;2.78;;;;;;;;;;4978078;28;20390;-67
2023/03/17 14:08:07;;;;;;;10.55;2.58;;;;;;;;;;4976541;28;20049;-67
2023/03/17 14:10:36;;;;;;;12.95;2.92;;;;;;;;;;4974503;28;20134;-68
2023/03/17 14:13:38;;;;;;;8.77;2.47;;;;;;;;;;4983085;28;20039;-65
2023/03/17 14:16:12;;;;;;;11.00;2.83;;;;;;;;;;4977842;28;20052;-64
2023/03/17 14:18:43;;;;;;;10.13;3.80;;;;;;;;;;4981092;28;20054;-66
2023/03/17 14:21:21;;;;;;;10.52;2.65;;;;;;;;;;4959354;28;20723;-64
2023/03/17 14:23:57;;;;;;;14.20;3.42;;;;;;;;;;4980401;28;20050;-68
2023/03/17 14:26:30;;;;;;;12.52;3.60;;;;;;;;;;4966694;28;20061;-68
2023/03/17 14:29:03;;;;;;;10.27;2.58;;;;;;;;;;4983845;28;20406;-67
2023/03/17 14:31:32;;;;;;;13.40;3.00;;;;;;;;;;4964619;28;20161;-63
2023/03/17 14:34:00;;;;;;;9.15;2.35;;;;;;;;;;4981185;28;20101;-65
2023/03/17 14:36:32;;;;;;;11.30;2.50;;;;;;;;;;4979112;28;20070;-66
2023/03/17 14:38:59;;;;;;;10.65;2.58;;;;;;;;;;4972732;28;20085;-66
2023/03/17 14:41:27;;;;;;;13.77;2.40;;;;;;;;;;4980136;28;20054;-67
2023/03/17 14:44:00;;;;;;;11.45;2.97;;;;;;;;;;4960843;28;20367;-67
2023/03/17 14:46:32;;;;;;;10.23;2.80;;;;;;;;;;4944618;28;20132;-65
2023/03/17 14:49:19;;;;;;;12.00;2.53;;;;;;;;;;4983094;28;20057;-67
2023/03/17 14:51:52;;;;;;;12.75;2.85;;;;;;;;;;4973190;28;20509;-66
2023/03/17 14:54:23;;;;;;;10.23;2.58;;;;;;;;;;4965834;28;20066;-66
2023/03/17 14:57:00;;;;;;;9.32;2.50;;;;;;;;;;4983383;28;20470;-65
2023/03/17 14:59:30;;;;;;;9.60;2.50;;;;;;;;;;4975666;28;20054;-67
2023/03/17 15:02:22;;;;;;;12.68;3.05;;;;;;;;;;4982685;28;20430;-65
2023/03/17 15:04:58;;;;;;;10.63;2.60;;;;;;;;;;4975358;28;20058;-64
2023/03/17 15:07:31;;;;;;;9.23;2.30;;;;;;;;;;4965305;28;20046;-67
2023/03/17 15:10:16;;;;;;;10.50;2.53;;;;;;;;;;4990055;28;20188;-67
2023/03/17 15:12:47;;;;;;;11.73;2.70;;;;;;;;;;4989385;28;20040;-64
2023/03/17 15:15:25;;;;;;;13.75;2.75;;;;;;;;;;4989914;28;20096;-66
2023/03/17 15:17:57;;;;;;;14.55;2.72;;;;;;;;;;4984786;28;20046;-65
2023/03/17 15:20:34;;;;;;;12.90;2.90;;;;;;;;;;4989047;28;20055;-67
2023/03/17 15:23:18;;;;;;;11.73;2.30;;;;;;;;;;4982235;28;20129;-66
2023/03/17 15:25:50;;;;;;;11.40;3.15;;;;;;;;;;4982972;28;20068;-67
2023/03/17 15:28:22;;;;;;;8.75;2.33;;;;;;;;;;4988940;28;20422;-65
2023/03/17 15:31:04;;;;;;;10.88;2.80;;;;;;;;;;4981760;28;20316;-66
2023/03/17 15:33:37;;;;;;;13.35;3.47;;;;;;;;;;4967590;28;20462;-67
2023/03/17 15:36:04;;;;;;;11.20;2.60;;;;;;;;;;4968845;28;20073;-65
2023/03/17 15:38:37;;;;;;;15.18;3.00;;;;;;;;;;4986901;28;20310;-67
2023/03/17 15:41:09;;;;;;;10.00;2.58;;;;;;;;;;4986044;28;20356;-66
2023/03/17 15:43:36;;;;;;;9.00;2.63;;;;;;;;;;4983465;28;20081;-64
2023/03/17 15:46:06;;;;;;;11.00;3.10;;;;;;;;;;4985146;28;20057;-65
2023/03/17 15:48:34;;;;;;;13.32;3.25;;;;;;;;;;4946446;28;20109;-65
2023/03/17 15:51:04;;;;;;;12.65;3.08;;;;;;;;;;4953950;28;20415;-64
2023/03/17 15:53:31;;;;;;;10.55;2.60;;;;;;;;;;4968690;28;20050;-66
2023/03/17 15:55:58;;;;;;;10.75;3.00;;;;;;;;;;4982161;28;20062;-65
2023/03/17 15:58:24;;;;;;;12.95;3.13;;;;;;;;;;4970130;28;20074;-67
2023/03/17 16:00:56;;;;;;;13.32;3.60;;;;;;;;;;4998334;28;20069;-65
2023/03/17 16:03:31;;;;;;;12.30;2.97;;;;;;;;;;4984469;28;20070;-66
2023/03/17 16:06:03;;;;;;;13.63;4.78;;;;;;;;;;4960903;28;20042;-65
2023/03/17 16:08:30;;;;;;;16.35;3.00;;;;;;;;;;4970544;28;20046;-67
2023/03/17 16:10:57;;;;;;;15.25;3.13;;;;;;;;;;4986269;28;20050;-65
2023/03/17 16:13:24;;;;;;;13.40;3.72;;;;;;;;;;4983020;28;20046;-66
2023/03/17 16:15:56;;;;;;;12.25;3.15;;;;;;;;;;4987125;28;20108;-66
2023/03/17 16:18:34;;;;;;;11.63;3.28;;;;;;;;;;4990526;28;20507;-67
2023/03/17 16:21:01;;;;;;;13.48;3.05;;;;;;;;;;4972797;28;20042;-66
2023/03/17 16:23:35;;;;;;;14.45;3.58;;;;;;;;;;4973101;28;20053;-65
2023/03/17 16:26:05;;;;;;;12.98;3.85;;;;;;;;;;4989950;28;20051;-66
2023/03/17 16:28:32;;;;;;;11.52;3.10;;;;;;;;;;4991385;28;20439;-67
2023/03/17 16:31:00;;;;;;;17.65;9.55;;;;;;;;;;4967759;28;20066;-67
2023/03/17 16:33:37;;;;;;;15.57;3.28;;;;;;;;;;4990689;28;20042;-69
2023/03/17 16:36:03;;;;;;;11.38;2.97;;;;;;;;;;4987222;28;20058;-66
2023/03/17 16:38:31;;;;;;;13.50;3.28;;;;;;;;;;4988034;28;20463;-67
2023/03/17 16:41:07;;;;;;;;;;;;;;;;;;4990988;28;20061;-68
2023/03/17 16:43:36;;;;;;;14.27;2.95;;;;;;;;;;4973102;28;19956;-67
2023/03/17 16:46:04;;;;;;;12.63;2.60;;;;;;;;;;4969614;28;20081;-65
2023/03/17 16:48:32;;;;;;;11.55;2.95;;;;;;;;;;4978471;28;20053;-67
2023/03/17 16:50:59;;;;;;;15.90;4.30;;;;;;;;;;4992058;28;20058;-65
2023/03/17 16:53:26;;;;;;;15.20;4.07;;;;;;;;;;4986141;28;20101;-67
2023/03/17 16:55:56;;;;;;;14.65;4.10;;;;;;;;;;4988115;28;20053;-67
2023/03/17 16:58:30;;;;;;;19.02;6.57;;;;;;;;;;4987280;28;20054;-66
2023/03/17 17:00:58;;;;;;;17.00;5.10;;;;;;;;;;4969142;28;20124;-65
2023/03/17 17:03:24;;;;;;;20.52;4.68;;;;;;;;;;4964187;28;20050;-65
2023/03/17 17:05:51;;;;;;;12.80;3.15;;;;;;;;;;4987945;28;20280;-67